createdAt,value
2024-03-19T00:02:13.295Z,4.20
2024-03-19T00:04:45.945Z,4.10
2024-03-19T00:07:15.298Z,5.00
2024-03-19T00:09:44.561Z,4.50
2024-03-19T00:12:13.997Z,4.90
2024-03-19T00:14:45.502Z,4.50
2024-03-19T00:17:14.915Z,3.90
2024-03-19T00:19:44.268Z,3.90
2024-03-19T00:22:13.607Z,4.60
2024-03-19T00:24:44.314Z,4.90
2024-03-19T00:27:13.700Z,4.40
2024-03-19T00:29:45.435Z,4.30
2024-03-19T00:32:14.771Z,4.10
2024-03-19T00:34:44.338Z,3.90
2024-03-19T00:37:16.102Z,3.90
2024-03-19T00:39:45.454Z,3.60
2024-03-19T00:42:14.833Z,4.10
2024-03-19T00:44:46.449Z,3.80
2024-03-19T00:47:17.908Z,4.00
2024-03-19T00:49:47.325Z,4.70
2024-03-19T00:52:19.141Z,4.30
2024-03-19T00:54:48.634Z,3.80
2024-03-19T00:57:18.140Z,4.50
2024-03-19T00:59:47.991Z,4.40
2024-03-19T01:02:18.125Z,4.40
2024-03-19T01:07:23.251Z,4.60
2024-03-19T01:09:57.782Z,4.70
2024-03-19T01:12:27.214Z,5.00
2024-03-19T01:14:56.840Z,5.10
2024-03-19T01:17:26.220Z,4.50
2024-03-19T01:19:55.553Z,3.90
2024-03-19T01:22:27.766Z,4.10
2024-03-19T01:24:57.151Z,4.80
2024-03-19T01:27:26.513Z,4.80
2024-03-19T01:29:58.246Z,4.90
2024-03-19T01:32:27.737Z,4.50
2024-03-19T01:34:57.065Z,5.00
2024-03-19T01:37:26.389Z,4.60
2024-03-19T01:39:55.716Z,3.90
2024-03-19T01:42:27.649Z,4.00
2024-03-19T01:45:12.445Z,4.30
2024-03-19T01:47:45.053Z,4.30
2024-03-19T01:52:48.559Z,5.20
2024-03-19T01:55:18.797Z,4.70
2024-03-19T01:57:50.959Z,4.40
2024-03-19T02:00:22.709Z,4.20
2024-03-19T02:02:52.200Z,4.60
2024-03-19T02:05:21.543Z,4.30
2024-03-19T02:07:50.924Z,4.50
2024-03-19T02:10:22.466Z,4.80
2024-03-19T02:12:54.423Z,4.60
2024-03-19T02:15:23.764Z,4.70
2024-03-19T02:17:55.419Z,5.20
2024-03-19T02:20:28.002Z,4.20
2024-03-19T02:22:57.313Z,4.00
2024-03-19T02:25:27.297Z,3.50
2024-03-19T02:27:58.228Z,4.30
2024-03-19T02:30:27.793Z,4.30
2024-03-19T02:32:59.507Z,4.50
2024-03-19T02:35:28.942Z,4.50
2024-03-19T02:37:58.302Z,4.50
2024-03-19T02:40:27.715Z,4.20
2024-03-19T02:42:57.034Z,4.10
2024-03-19T02:45:28.999Z,4.50
2024-03-19T02:48:00.576Z,3.80
2024-03-19T02:50:30.427Z,4.10
2024-03-19T02:53:02.095Z,4.60
2024-03-19T02:55:32.511Z,4.70
2024-03-19T02:58:01.820Z,4.50
2024-03-19T03:00:31.205Z,4.30
2024-03-19T03:03:00.643Z,4.70
2024-03-19T03:05:32.476Z,4.20
2024-03-19T03:08:04.578Z,4.70
2024-03-19T03:10:34.250Z,4.40
2024-03-19T03:13:06.885Z,3.90
2024-03-19T03:15:36.330Z,4.10
2024-03-19T03:18:06.802Z,5.10
2024-03-19T03:20:36.327Z,4.00
2024-03-19T03:23:08.666Z,5.10
2024-03-19T03:25:39.194Z,4.00
2024-03-19T03:28:09.074Z,4.40
2024-03-19T03:30:38.783Z,4.60
2024-03-19T03:33:12.815Z,4.10
2024-03-19T03:35:43.856Z,3.90
2024-03-19T03:38:13.278Z,4.10
2024-03-19T03:40:45.328Z,5.00
2024-03-19T03:43:14.684Z,5.00
2024-03-19T03:45:48.730Z,4.10
2024-03-19T03:48:18.740Z,4.80
2024-03-19T03:50:48.088Z,5.00
2024-03-19T03:53:19.574Z,4.30
2024-03-19T03:55:48.838Z,4.00
2024-03-19T03:58:18.201Z,4.00
2024-03-19T04:00:48.471Z,4.20
2024-03-19T04:03:18.248Z,3.70
2024-03-19T04:05:50.012Z,4.70
2024-03-19T04:08:21.521Z,4.20
2024-03-19T04:10:51.072Z,3.90
2024-03-19T04:13:20.470Z,4.80
2024-03-19T04:15:51.956Z,4.20
2024-03-19T04:18:23.459Z,4.10
2024-03-19T04:20:53.288Z,4.40
2024-03-19T04:23:22.663Z,4.40
2024-03-19T04:25:52.028Z,3.90
2024-03-19T04:28:21.385Z,5.20
2024-03-19T04:30:50.842Z,4.30
2024-03-19T04:33:20.276Z,4.70
2024-03-19T04:35:49.568Z,4.80
2024-03-19T04:38:21.307Z,3.90
2024-03-19T04:40:52.828Z,4.00
2024-03-19T04:43:24.341Z,4.10
2024-03-19T04:45:56.079Z,3.90
2024-03-19T04:48:25.542Z,4.50
2024-03-19T04:50:55.308Z,4.50
2024-03-19T04:53:24.695Z,3.60
2024-03-19T04:55:54.392Z,4.40
2024-03-19T04:58:23.799Z,4.50
2024-03-19T05:00:55.440Z,4.20
2024-03-19T05:03:24.940Z,3.80
2024-03-19T05:05:54.391Z,4.30
2024-03-19T05:08:24.030Z,4.30
2024-03-19T05:10:55.588Z,3.90
2024-03-19T05:13:25.170Z,4.00
2024-03-19T05:15:56.793Z,4.70
2024-03-19T05:18:26.487Z,4.80
2024-03-19T05:20:56.060Z,5.20
2024-03-19T05:23:30.275Z,3.70
2024-03-19T05:25:59.796Z,3.70
2024-03-19T05:28:31.474Z,3.70
2024-03-19T05:31:00.858Z,4.20
2024-03-19T05:33:30.233Z,4.40
2024-03-19T05:35:59.485Z,4.40
2024-03-19T05:38:28.805Z,4.30
2024-03-19T05:40:58.231Z,4.10
2024-03-19T05:43:30.690Z,4.50
2024-03-19T05:46:02.483Z,3.40
2024-03-19T05:48:33.177Z,3.80
2024-03-19T05:51:05.335Z,4.40
2024-03-19T05:53:37.163Z,4.10
2024-03-19T05:56:09.469Z,4.20
2024-03-19T05:58:40.916Z,4.20
2024-03-19T06:01:10.322Z,3.80
2024-03-19T06:03:43.889Z,3.40
2024-03-19T06:06:18.182Z,4.20
2024-03-19T06:08:49.486Z,4.40
2024-03-19T06:11:18.844Z,4.00
2024-03-19T06:13:48.199Z,3.80
2024-03-19T06:16:18.256Z,4.00
2024-03-19T06:18:50.508Z,4.20
2024-03-19T06:21:19.996Z,4.00
2024-03-19T06:23:51.382Z,5.00
2024-03-19T06:26:20.897Z,4.30
2024-03-19T06:28:50.223Z,4.40
2024-03-19T06:31:19.661Z,5.80
2024-03-19T06:33:49.484Z,3.90
2024-03-19T06:36:19.184Z,4.40
2024-03-19T06:38:50.944Z,4.10
2024-03-19T06:41:22.857Z,4.60
2024-03-19T06:43:52.213Z,4.20
2024-03-19T06:46:21.547Z,4.20
2024-03-19T06:48:50.950Z,3.90
2024-03-19T06:51:20.317Z,3.30
2024-03-19T06:53:51.920Z,3.60
2024-03-19T06:56:21.293Z,3.60
2024-03-19T06:58:50.657Z,3.60
2024-03-19T07:01:20.117Z,4.60
2024-03-19T07:03:59.817Z,4.30
2024-03-19T07:06:33.430Z,4.70
2024-03-19T07:09:02.814Z,4.00
2024-03-19T07:11:33.052Z,3.80
2024-03-19T07:14:06.032Z,4.10
2024-03-19T07:16:35.429Z,3.80
2024-03-19T07:19:04.884Z,3.80
2024-03-19T07:21:34.281Z,3.90
2024-03-19T07:24:03.859Z,3.70
2024-03-19T07:26:33.227Z,4.60
2024-03-19T07:29:04.934Z,3.90
2024-03-19T07:31:34.367Z,3.80
2024-03-19T07:34:03.832Z,3.70
2024-03-19T07:36:37.048Z,4.20
2024-03-19T07:39:12.888Z,4.30
2024-03-19T07:41:44.722Z,3.50
2024-03-19T07:44:16.295Z,3.30
2024-03-19T07:46:45.771Z,3.10
2024-03-19T07:49:15.539Z,4.10
2024-03-19T07:51:45.039Z,3.70
2024-03-19T07:54:14.450Z,3.90
2024-03-19T07:56:45.141Z,3.40
2024-03-19T07:59:19.075Z,3.60
2024-03-19T08:01:50.268Z,3.30
2024-03-19T08:04:21.546Z,5.00
2024-03-19T08:06:51.547Z,3.60
2024-03-19T08:09:21.348Z,3.10
2024-03-19T08:11:50.716Z,3.50
2024-03-19T08:14:20.143Z,3.70
2024-03-19T08:16:49.782Z,3.20
2024-03-19T08:19:21.729Z,3.30
2024-03-19T08:21:51.216Z,3.70
2024-03-19T08:24:20.584Z,3.10
2024-03-19T08:26:50.084Z,3.50
2024-03-19T08:29:21.873Z,3.10
2024-03-19T08:31:51.307Z,3.20
2024-03-19T08:34:20.641Z,2.70
2024-03-19T08:36:50.019Z,3.10
2024-03-19T08:39:19.858Z,3.10
2024-03-19T08:41:49.856Z,3.30
2024-03-19T08:44:21.600Z,3.10
2024-03-19T08:46:53.305Z,3.00
2024-03-19T08:49:22.958Z,3.30
2024-03-19T08:51:52.465Z,2.90
2024-03-19T08:54:22.006Z,3.30
2024-03-19T08:56:52.633Z,2.60
2024-03-19T08:59:22.103Z,2.60
2024-03-19T09:01:51.553Z,2.00
2024-03-19T09:04:21.052Z,2.10
2024-03-19T09:06:50.432Z,2.10
2024-03-19T09:09:19.853Z,2.00
2024-03-19T09:11:52.750Z,2.20
2024-03-19T09:14:22.318Z,2.20
2024-03-19T09:16:51.667Z,2.20
2024-03-19T09:19:25.367Z,3.30
2024-03-19T09:21:55.565Z,2.40
2024-03-19T09:24:24.927Z,2.00
2024-03-19T09:26:56.666Z,2.30
2024-03-19T09:29:26.085Z,2.50
2024-03-19T09:31:55.550Z,1.90
2024-03-19T09:34:24.961Z,2.70
2024-03-19T09:36:54.346Z,2.60
2024-03-19T09:39:23.696Z,2.50
2024-03-19T09:42:03.308Z,2.60
2024-03-19T09:44:33.272Z,2.30
2024-03-19T09:47:05.155Z,2.50
2024-03-19T09:49:37.819Z,2.80
2024-03-19T09:52:08.237Z,2.40
2024-03-19T09:54:38.688Z,2.60
2024-03-19T09:57:18.777Z,2.70
2024-03-19T09:59:48.470Z,2.50
2024-03-19T10:02:21.836Z,2.40
2024-03-19T10:04:51.341Z,2.10
2024-03-19T10:07:22.284Z,2.60
2024-03-19T10:09:55.690Z,2.30
2024-03-19T10:12:25.450Z,3.00
2024-03-19T10:14:56.036Z,3.10
2024-03-19T10:17:26.376Z,3.10
2024-03-19T10:19:57.752Z,2.90
2024-03-19T10:22:29.053Z,2.40
2024-03-19T10:24:58.546Z,3.60
2024-03-19T10:27:28.417Z,2.80
2024-03-19T10:30:00.764Z,2.30
2024-03-19T10:32:33.588Z,2.50
2024-03-19T10:35:07.064Z,2.50
2024-03-19T10:37:40.174Z,3.20
2024-03-19T10:40:13.893Z,2.80
2024-03-19T10:42:45.819Z,2.40
2024-03-19T10:45:18.837Z,2.70
2024-03-19T10:47:51.991Z,3.10
2024-03-19T10:50:23.223Z,2.90
2024-03-19T10:52:59.973Z,2.40
2024-03-19T10:55:31.525Z,2.70
2024-03-19T10:58:07.733Z,3.00
2024-03-19T11:00:43.047Z,2.30
2024-03-19T11:03:21.798Z,2.50
2024-03-19T11:05:55.347Z,2.30
2024-03-19T11:08:30.256Z,2.40
2024-03-19T11:11:09.741Z,2.30
2024-03-19T11:13:39.297Z,2.30
2024-03-19T11:16:20.584Z,2.40
2024-03-19T11:18:56.186Z,2.30
2024-03-19T11:21:28.636Z,2.50
2024-03-19T11:23:58.277Z,3.20
2024-03-19T11:26:29.392Z,2.20
2024-03-19T11:29:05.683Z,2.80
2024-03-19T11:31:44.348Z,3.00
2024-03-19T11:34:16.317Z,2.40
2024-03-19T11:36:49.689Z,2.80
2024-03-19T11:39:19.920Z,2.30
2024-03-19T11:41:50.990Z,3.10
2024-03-19T11:44:25.820Z,2.90
2024-03-19T11:46:55.515Z,2.70
2024-03-19T11:49:30.540Z,2.90
2024-03-19T11:52:01.372Z,2.50
2024-03-19T11:54:32.747Z,2.90
2024-03-19T11:57:04.691Z,2.90
2024-03-19T11:59:36.396Z,3.00
2024-03-19T12:02:12.965Z,2.50
2024-03-19T12:07:14.186Z,3.00
2024-03-19T12:09:43.513Z,2.60
2024-03-19T12:12:14.655Z,2.70
2024-03-19T12:14:45.688Z,3.50
2024-03-19T12:17:15.948Z,3.00
2024-03-19T12:19:45.354Z,2.70
2024-03-19T12:22:17.657Z,2.70
2024-03-19T12:24:52.193Z,2.20
2024-03-19T12:27:26.624Z,2.20
2024-03-19T12:29:59.300Z,2.00
2024-03-19T12:32:38.049Z,1.80
2024-03-19T12:35:14.457Z,1.80
2024-03-19T12:37:45.112Z,2.00
2024-03-19T12:40:19.889Z,2.70
2024-03-19T12:42:50.615Z,2.30
2024-03-19T12:45:20.661Z,2.30
2024-03-19T12:47:50.790Z,2.10
2024-03-19T12:50:20.858Z,2.30
2024-03-19T12:52:52.533Z,3.00
2024-03-19T12:55:21.976Z,2.70
2024-03-19T12:57:51.792Z,1.90
2024-03-19T13:00:24.688Z,1.90
2024-03-19T13:02:55.980Z,2.00
2024-03-19T13:05:26.147Z,2.30
2024-03-19T13:07:57.023Z,2.20
2024-03-19T13:10:31.426Z,1.90
2024-03-19T13:15:35.015Z,2.10
2024-03-19T13:18:07.875Z,3.10
2024-03-19T13:20:37.612Z,2.60
2024-03-19T13:23:11.874Z,2.50
2024-03-19T13:25:43.724Z,2.60
2024-03-19T13:28:13.130Z,2.00
2024-03-19T13:30:42.850Z,2.80
2024-03-19T13:33:12.261Z,2.60
2024-03-19T13:35:42.147Z,3.20
2024-03-19T13:38:14.105Z,2.90
2024-03-19T13:40:43.539Z,2.80
2024-03-19T13:43:12.866Z,3.30
2024-03-19T13:45:53.832Z,2.90
2024-03-19T13:48:29.968Z,3.00
2024-03-19T13:50:59.635Z,2.70
2024-03-19T13:53:29.276Z,2.90
2024-03-19T13:55:58.722Z,3.20
2024-03-19T13:58:28.281Z,2.10
2024-03-19T14:00:59.025Z,2.30
2024-03-19T14:03:31.810Z,2.40
2024-03-19T14:06:01.346Z,2.60
2024-03-19T14:08:31.038Z,2.30
2024-03-19T14:11:00.744Z,2.20
2024-03-19T14:13:30.672Z,2.40
2024-03-19T14:16:02.606Z,2.30
2024-03-19T14:18:35.982Z,2.40
2024-03-19T14:21:07.905Z,2.40
2024-03-19T14:23:42.003Z,2.50
2024-03-19T14:26:13.566Z,2.80
2024-03-19T14:28:42.998Z,2.70
2024-03-19T14:31:12.579Z,2.50
2024-03-19T14:33:44.361Z,2.90
2024-03-19T14:36:13.919Z,2.90
2024-03-19T14:38:43.395Z,2.70
2024-03-19T14:41:12.727Z,2.10
2024-03-19T14:43:46.519Z,2.10
2024-03-19T14:46:21.164Z,2.10
2024-03-19T14:48:50.532Z,2.20
2024-03-19T14:51:20.080Z,2.90
2024-03-19T14:53:51.729Z,2.40
2024-03-19T14:56:21.045Z,2.50
2024-03-19T14:58:50.451Z,2.00
2024-03-19T15:01:19.920Z,2.00
2024-03-19T15:03:52.330Z,2.00
2024-03-19T15:06:23.814Z,1.80
2024-03-19T15:08:53.354Z,1.70
2024-03-19T15:11:22.896Z,1.80
2024-03-19T15:13:54.757Z,2.10
2024-03-19T15:16:24.207Z,2.10
2024-03-19T15:18:54.556Z,2.00
2024-03-19T15:21:26.565Z,2.30
2024-03-19T15:23:56.021Z,2.20
2024-03-19T15:26:25.513Z,1.80
2024-03-19T15:28:54.920Z,1.70
2024-03-19T15:31:24.333Z,2.40
2024-03-19T15:33:53.717Z,2.00
2024-03-19T15:36:25.908Z,2.10
2024-03-19T15:38:55.414Z,1.70
2024-03-19T15:41:31.697Z,1.80
2024-03-19T15:44:01.206Z,2.00
2024-03-19T15:46:30.996Z,2.20
2024-03-19T15:49:00.366Z,2.10
2024-03-19T15:51:32.124Z,2.20
2024-03-19T15:54:01.822Z,1.90
2024-03-19T15:56:33.723Z,1.70
2024-03-19T15:59:03.102Z,1.70
2024-03-19T16:01:32.967Z,1.90
2024-03-19T16:04:02.447Z,2.00
2024-03-19T16:06:31.774Z,1.60
2024-03-19T16:09:01.262Z,1.80
2024-03-19T16:11:32.884Z,2.00
2024-03-19T16:14:02.281Z,1.60
2024-03-19T16:16:34.448Z,1.60
2024-03-19T16:19:04.618Z,2.00
2024-03-19T16:21:34.103Z,2.10
2024-03-19T16:24:04.138Z,1.80
2024-03-19T16:26:34.111Z,1.80
2024-03-19T16:29:03.742Z,2.00
2024-03-19T16:31:33.159Z,1.80
2024-03-19T16:34:04.848Z,2.00
2024-03-19T16:36:34.179Z,2.10
2024-03-19T16:39:04.859Z,2.40
2024-03-19T16:41:34.647Z,2.10
2024-03-19T16:44:06.167Z,2.00
2024-03-19T16:46:35.465Z,1.80
2024-03-19T16:49:05.137Z,1.70
2024-03-19T16:51:34.451Z,2.20
2024-03-19T16:54:03.883Z,1.80
2024-03-19T16:56:35.806Z,2.20
2024-03-19T16:59:05.724Z,2.40
2024-03-19T17:01:36.251Z,2.00
2024-03-19T17:04:06.535Z,1.90
2024-03-19T17:06:36.065Z,2.30
2024-03-19T17:09:09.238Z,1.80
2024-03-19T17:11:38.636Z,2.10
2024-03-19T17:14:14.447Z,1.90
2024-03-19T17:16:44.922Z,2.10
2024-03-19T17:19:17.724Z,1.70
2024-03-19T17:21:47.294Z,1.70
2024-03-19T17:24:17.434Z,1.50
2024-03-19T17:26:46.984Z,2.00
2024-03-19T17:29:17.986Z,1.70
2024-03-19T17:31:49.035Z,1.80
2024-03-19T17:34:19.885Z,2.00
2024-03-19T17:36:49.457Z,1.80
2024-03-19T17:39:19.181Z,2.00
2024-03-19T17:41:49.005Z,1.90
2024-03-19T17:44:20.442Z,2.60
2024-03-19T17:46:49.791Z,1.80
2024-03-19T17:49:22.858Z,2.60
2024-03-19T17:51:55.307Z,1.90
2024-03-19T17:54:24.893Z,1.50
2024-03-19T17:56:54.394Z,2.00
2024-03-19T17:59:26.842Z,2.00
2024-03-19T18:01:56.930Z,2.30
2024-03-19T18:04:26.372Z,2.20
2024-03-19T18:06:58.352Z,2.20
2024-03-19T18:09:27.718Z,2.70
2024-03-19T18:11:59.531Z,2.30
2024-03-19T18:14:28.893Z,2.20
2024-03-19T18:16:58.258Z,2.30
2024-03-19T18:19:30.150Z,2.50
2024-03-19T18:21:59.491Z,2.30
2024-03-19T18:24:32.368Z,1.80
2024-03-19T18:27:04.902Z,2.30
2024-03-19T18:29:34.430Z,2.20
2024-03-19T18:32:04.333Z,2.30
2024-03-19T18:34:33.744Z,2.70
2024-03-19T18:37:05.445Z,2.40
2024-03-19T18:39:39.107Z,2.70
2024-03-19T18:42:08.607Z,2.90
2024-03-19T18:44:40.608Z,3.30
2024-03-19T18:47:10.588Z,3.30
2024-03-19T18:49:43.486Z,3.20
2024-03-19T18:52:12.830Z,2.70
2024-03-19T18:54:42.204Z,3.00
2024-03-19T18:57:15.386Z,3.30
2024-03-19T18:59:47.192Z,3.20
2024-03-19T19:02:19.063Z,3.00
2024-03-19T19:04:48.518Z,3.20
2024-03-19T19:07:18.503Z,3.00
2024-03-19T19:09:47.966Z,3.40
2024-03-19T19:12:19.943Z,3.10
2024-03-19T19:14:49.310Z,3.30
2024-03-19T19:17:18.707Z,2.80
2024-03-19T19:19:48.121Z,3.30
2024-03-19T19:22:19.808Z,2.60
2024-03-19T19:24:49.217Z,3.10
2024-03-19T19:27:21.101Z,2.90
2024-03-19T19:29:55.094Z,3.10
2024-03-19T19:32:24.575Z,3.20
2024-03-19T19:34:56.788Z,3.20
2024-03-19T19:37:28.610Z,3.20
2024-03-19T19:39:58.656Z,2.90
2024-03-19T19:42:28.009Z,3.60
2024-03-19T19:44:58.180Z,3.20
2024-03-19T19:47:30.220Z,3.00
2024-03-19T19:50:00.871Z,3.80
2024-03-19T19:52:31.092Z,3.30
2024-03-19T19:55:00.883Z,3.50
2024-03-19T19:57:30.413Z,5.40
2024-03-19T19:59:59.764Z,6.40
2024-03-19T20:02:29.612Z,5.50
2024-03-19T20:04:59.250Z,4.90
2024-03-19T20:07:29.498Z,5.30
2024-03-19T20:10:01.530Z,4.80
2024-03-19T20:12:31.080Z,5.00
2024-03-19T20:15:01.200Z,5.30
2024-03-19T20:17:30.552Z,5.90
2024-03-19T20:20:01.053Z,5.10
2024-03-19T20:22:30.395Z,5.60
2024-03-19T20:24:59.751Z,4.70
2024-03-19T20:27:31.268Z,5.20
2024-03-19T20:30:05.840Z,4.60
2024-03-19T20:32:35.212Z,4.90
2024-03-19T20:35:06.968Z,4.50
2024-03-19T20:37:37.540Z,5.40
2024-03-19T20:40:14.405Z,5.00
2024-03-19T20:42:44.632Z,4.90
2024-03-19T20:45:16.622Z,5.10
2024-03-19T20:47:47.605Z,5.00
2024-03-19T20:50:17.476Z,5.20
2024-03-19T20:52:47.017Z,5.20
2024-03-19T20:55:16.806Z,5.20
2024-03-19T20:57:46.262Z,5.60
2024-03-19T21:00:18.117Z,4.40
2024-03-19T21:02:47.529Z,5.70
2024-03-19T21:05:17.534Z,5.40
2024-03-19T21:07:49.362Z,5.90
2024-03-19T21:10:18.725Z,5.20
2024-03-19T21:12:48.519Z,5.60
2024-03-19T21:15:17.881Z,6.70
2024-03-19T21:17:49.876Z,6.20
2024-03-19T21:20:19.486Z,5.40
2024-03-19T21:22:49.495Z,6.00
2024-03-19T21:25:22.219Z,5.10
2024-03-19T21:27:51.777Z,6.20
2024-03-19T21:30:21.852Z,6.40
2024-03-19T21:32:51.265Z,6.10
2024-03-19T21:35:21.023Z,5.40
2024-03-19T21:37:50.442Z,5.70
2024-03-19T21:40:20.413Z,5.90
2024-03-19T21:42:52.337Z,5.90
2024-03-19T21:45:26.354Z,5.00
2024-03-19T21:47:55.726Z,5.00
2024-03-19T21:50:26.244Z,4.70
2024-03-19T21:52:55.713Z,6.30
2024-03-19T21:55:25.161Z,6.00
2024-03-19T21:57:54.578Z,5.20
2024-03-19T22:00:30.843Z,5.60
2024-03-19T22:03:00.351Z,5.60
2024-03-19T22:05:30.129Z,6.40
2024-03-19T22:07:59.767Z,6.70
2024-03-19T22:10:30.150Z,4.70
2024-03-19T22:12:59.525Z,5.50
2024-03-19T22:15:28.821Z,5.60
2024-03-19T22:18:01.353Z,6.10
2024-03-19T22:20:31.064Z,5.90
2024-03-19T22:23:00.832Z,5.60
2024-03-19T22:25:30.191Z,5.50
2024-03-19T22:27:59.593Z,6.10
2024-03-19T22:30:28.921Z,5.40
2024-03-19T22:32:58.304Z,4.90
2024-03-19T22:35:27.792Z,5.60
2024-03-19T22:38:00.318Z,5.10
2024-03-19T22:40:32.040Z,5.30
2024-03-19T22:43:01.333Z,5.90
2024-03-19T22:45:33.026Z,5.90
2024-03-19T22:48:02.326Z,5.80
2024-03-19T22:50:33.978Z,5.60
2024-03-19T22:53:05.852Z,5.40
2024-03-19T22:55:35.207Z,6.20
2024-03-19T22:58:04.793Z,5.80
2024-03-19T23:00:35.590Z,5.50
2024-03-19T23:03:05.958Z,5.70
2024-03-19T23:05:35.343Z,5.30
2024-03-19T23:08:05.509Z,5.80
2024-03-19T23:10:39.243Z,6.00
2024-03-19T23:13:08.713Z,6.60
2024-03-19T23:15:40.764Z,4.80
2024-03-19T23:18:12.441Z,5.40
2024-03-19T23:20:41.863Z,5.40
2024-03-19T23:23:11.330Z,5.30
2024-03-19T23:25:43.165Z,6.40
2024-03-19T23:28:14.646Z,5.90
2024-03-19T23:30:44.027Z,5.70
2024-03-19T23:33:15.543Z,6.40
2024-03-19T23:35:44.885Z,5.90
2024-03-19T23:38:14.398Z,5.90
2024-03-19T23:40:46.692Z,5.40
2024-03-19T23:43:16.040Z,4.80
2024-03-19T23:45:45.657Z,5.90
2024-03-19T23:48:14.978Z,6.30
2024-03-19T23:50:44.588Z,5.30
2024-03-19T23:53:16.437Z,7.20
2024-03-19T23:55:45.839Z,6.10
2024-03-19T23:58:17.290Z,5.70
